メインページ
METAR-TAF:

METAR-TAF

空港 :

ポートビラ・バウアフィールド空港

ポートビラ, エファテ島, バヌアツ

緯度: 17-42S, 経度: 168-18E, 海抜: 20m

現時点の気象観測

当レポートは1時間19分前の23:00(UTC)に作成
の風 9kt
気温 26°C
湿度 79%
気圧 1014 hPa
視程10km以上
高度2000ftの千切れ雲あり
高度11000ftの曇り

METAR: NVVV 202300Z 10009KT 9999 BKN020 OVC110 26/22 Q1014 RMK NIL

時間: 11:19 (00:19 UTC)

予報

当レポートは8時間19分前の16:00(UTC)に作成
予報は20日の 18時(UTC)から 21日の 18時(UTC)まで有効
の風 5kt
視程: 9000m
高度2000ftの雲は散在している
高度4000ftの千切れ雲あり
高度1600ftの千切れ雲あり
高度3800ftの曇り
にわか雨
20日の 20時(UTC)から 20日の 23時(UTC)まで徐々に
の風 10kt

TAF: NVVV 201600Z 2018/2118 10005KT 9999 SCT020 BKN040 INTER 2018/2024 9000 SHRA BKN016 OVC038 BECMG 2020/2023 10010KT

4,000以上の空港の気象観測と天気予報(METAR報とTAF報)

利用可能な観測所は地図上に黄色い丸と赤い丸で示す。

丸の上にカーソルを重ねると観測所名を参照できる。

次にクリックすると気象観測と天気予報を参照できる。

マップの切り替え:黒色「×」印の緑ボタンをクリックして拡大、「-」印の緑ボタンをクリックして縮小、緑色の三角印をクリックして隣りの地図に切り替え


METAR-TAF: